Time;durP1;ratioP1;P1;durP2;ratioP2;P2;SDS_P1;SDS_P2;PMS_P1;PMS_P2;Temp;Humidity;BMP_temperature;BMP_pressure;BME280_temperature;BME280_humidity;BME280_pressure;Samples;Min_cycle;Max_cycle;Signal;HPM_P1;HPM_P2
2022/10/28 00:00:26;;;;;;;0.57;0.57;;;;;;;15.81;44.86;96346.31;5111001;27;20915;-61
2022/10/28 00:02:53;;;;;;;0.30;0.30;;;;;;;15.84;44.92;96340.50;5097956;28;20440;-62
2022/10/28 00:05:21;;;;;;;2.53;0.77;;;;;;;15.83;44.62;96341.56;5109513;28;20498;-63
2022/10/28 00:07:47;;;;;;;0.67;0.67;;;;;;;15.96;44.44;96339.31;5104670;28;20460;-61
2022/10/28 00:10:14;;;;;;;2.40;1.40;;;;;;;15.99;43.79;96343.28;5111146;28;20819;-62
2022/10/28 00:12:41;;;;;;;2.27;1.13;;;;;;;15.77;44.64;96337.28;5107989;28;20449;-61
2022/10/28 00:15:08;;;;;;;4.30;1.97;;;;;;;15.61;44.90;96340.84;5098287;28;20532;-62
2022/10/28 00:17:35;;;;;;;0.10;0.10;;;;;;;15.59;44.72;96345.59;5091934;28;20445;-63
2022/10/28 00:20:02;;;;;;;3.50;1.47;;;;;;;15.45;45.53;96341.78;5111296;28;20464;-62
2022/10/28 00:22:29;;;;;;;0.33;0.33;;;;;;;15.55;44.80;96341.84;5110832;28;20448;-63
2022/10/28 00:24:56;;;;;;;1.07;1.07;;;;;;;15.47;45.47;96339.69;5106874;28;21222;-62
2022/10/28 00:27:23;;;;;;;1.57;1.47;;;;;;;15.67;44.70;96339.84;5090739;28;20947;-63
2022/10/28 00:29:50;;;;;;;0.17;0.17;;;;;;;15.06;45.96;96344.53;5093376;28;20440;-62
2022/10/28 00:32:16;;;;;;;0.73;0.60;;;;;;;14.52;47.46;96331.47;5100335;28;20537;-62
2022/10/28 00:34:43;;;;;;;4.00;2.10;;;;;;;15.07;45.97;96335.53;5100598;28;20452;-63
2022/10/28 00:37:10;;;;;;;0.30;0.30;;;;;;;13.93;47.85;96344.34;5099387;28;20438;-63
2022/10/28 00:39:37;;;;;;;0.50;0.50;;;;;;;14.34;47.13;96334.41;5109630;28;20879;-62
2022/10/28 00:42:06;;;;;;;0.07;0.07;;;;;;;14.93;45.72;96338.81;5089849;28;20959;-63
2022/10/28 00:44:52;;;;;;;2.00;1.57;;;;;;;15.24;44.89;96330.19;5104203;28;20990;-61
2022/10/28 00:47:39;;;;;;;0.50;0.50;;;;;;;15.33;44.81;96328.69;5090051;28;20473;-61
2022/10/28 00:50:24;;;;;;;0.27;0.27;;;;;;;15.39;44.86;96332.97;5090103;28;20490;-61
2022/10/28 00:52:55;;;;;;;0.37;0.37;;;;;;;15.32;45.00;96336.84;5092029;28;20540;-61
2022/10/28 00:55:23;;;;;;;0.20;0.20;;;;;;;15.27;45.04;96330.47;5091149;28;20455;-63
2022/10/28 00:57:55;;;;;;;0.30;0.30;;;;;;;15.12;45.46;96322.41;5110630;28;20570;-62
2022/10/28 01:00:24;;;;;;;0.23;0.23;;;;;;;15.25;45.08;96337.84;5096326;28;20445;-62
2022/10/28 01:02:51;;;;;;;1.43;1.33;;;;;;;15.39;45.01;96332.16;5095552;28;20454;-61
2022/10/28 01:05:24;;;;;;;0.83;0.60;;;;;;;15.42;44.88;96332.50;5107859;28;20436;-61
2022/10/28 01:07:56;;;;;;;1.57;1.07;;;;;;;15.29;44.98;96332.09;5105590;28;20448;-61
2022/10/28 01:10:47;;;;;;;1.33;1.10;;;;;;;15.21;45.04;96331.50;5102127;28;20985;-61
2022/10/28 01:14:06;;;;;;;0.30;0.30;;;;;;;15.37;44.76;96336.91;5097374;28;20440;-60
2022/10/28 01:16:35;;;;;;;0.47;0.43;;;;;;;15.34;45.05;96332.13;5094341;28;20445;-60
2022/10/28 01:19:49;;;;;;;0.40;0.40;;;;;;;15.27;44.35;96329.69;5100959;28;21175;-61
2022/10/28 01:22:15;;;;;;;1.07;0.40;;;;;;;15.12;44.77;96327.69;5081314;28;20445;-60
2022/10/28 01:25:22;;;;;;;0.67;0.67;;;;;;;15.03;45.22;96329.19;5096142;27;20516;-59
2022/10/28 01:28:23;;;;;;;0.00;0.00;;;;;;;14.95;46.04;96331.47;5095180;28;20480;-60
2022/10/28 01:31:35;;;;;;;0.60;0.53;;;;;;;14.46;47.27;96335.09;5109827;28;20440;-62
2022/10/28 01:34:07;;;;;;;0.10;0.10;;;;;;;13.52;49.29;96342.09;5094227;28;20457;-61
2022/10/28 01:36:44;;;;;;;1.50;1.07;;;;;;;13.73;49.18;96332.69;5089139;28;20675;-62
2022/10/28 01:39:38;;;;;;;1.60;0.50;;;;;;;13.65;49.10;96336.50;5095788;28;20560;-62
2022/10/28 01:42:10;;;;;;;3.23;1.13;;;;;;;14.01;48.20;96341.28;5090841;28;20467;-61
2022/10/28 01:44:47;;;;;;;0.00;0.00;;;;;;;14.34;47.50;96344.97;5108794;28;20855;-61
2022/10/28 01:47:36;;;;;;;1.10;0.90;;;;;;;14.43;46.62;96346.13;5109607;28;20479;-61
2022/10/28 01:50:11;;;;;;;0.33;0.30;;;;;;;14.44;46.74;96335.34;5095020;28;20452;-62
2022/10/28 01:52:40;;;;;;;4.90;0.90;;;;;;;14.39;46.54;96324.72;5108085;28;20451;-63
2022/10/28 01:55:20;;;;;;;0.10;0.10;;;;;;;14.46;46.55;96337.72;5096395;28;21060;-62
2022/10/28 01:57:50;;;;;;;0.20;0.20;;;;;;;14.37;46.80;96329.44;5089045;28;20440;-63
2022/10/28 02:00:17;;;;;;;0.10;0.10;;;;;;;14.58;46.01;96346.34;5091722;28;20484;-62
2022/10/28 02:02:46;;;;;;;0.13;0.13;;;;;;;14.63;45.97;96349.84;5108620;28;20439;-61
2022/10/28 02:05:32;;;;;;;0.10;0.10;;;;;;;14.54;46.44;96353.94;5097323;28;20946;-61
2022/10/28 02:08:09;;;;;;;5.17;1.67;;;;;;;14.56;46.57;96351.06;5089276;28;20475;-62
2022/10/28 02:10:45;;;;;;;0.67;0.67;;;;;;;14.59;45.83;96338.16;5096819;28;20846;-62
2022/10/28 02:13:14;;;;;;;0.10;0.10;;;;;;;14.44;46.64;96334.53;5106417;28;20455;-62
2022/10/28 02:16:07;;;;;;;0.30;0.30;;;;;;;14.45;46.64;96347.47;5097354;28;20560;-61
2022/10/28 02:19:00;;;;;;;0.23;0.23;;;;;;;14.16;46.92;96348.63;5072414;28;20469;-63
2022/10/28 02:22:23;;;;;;;0.10;0.10;;;;;;;14.06;47.60;96354.56;5108326;28;20459;-61
2022/10/28 02:25:01;;;;;;;8.30;2.13;;;;;;;14.11;46.63;96346.72;5065264;28;20457;-61
2022/10/28 02:27:56;;;;;;;0.20;0.20;;;;;;;13.96;47.56;96353.59;5061422;28;20453;-62
2022/10/28 02:31:04;;;;;;;0.10;0.10;;;;;;;14.22;46.23;96355.56;5087795;28;20445;-62
2022/10/28 02:33:37;;;;;;;0.37;0.37;;;;;;;14.09;47.09;96361.16;5081342;28;20547;-62
2022/10/28 02:36:11;;;;;;;1.33;1.23;;;;;;;14.00;46.56;96350.25;5092547;28;20451;-62
2022/10/28 02:38:43;;;;;;;0.80;0.80;;;;;;;13.94;46.52;96359.09;5092761;28;20568;-61
2022/10/28 02:41:24;;;;;;;0.77;0.30;;;;;;;13.98;47.04;96356.78;5092415;28;20512;-61
2022/10/28 02:43:54;;;;;;;0.10;0.10;;;;;;;14.03;46.65;96356.88;5106293;28;20873;-61
2022/10/28 02:46:25;;;;;;;0.70;0.70;;;;;;;14.01;46.74;96361.59;5105772;28;20484;-61
2022/10/28 02:48:56;;;;;;;0.30;0.30;;;;;;;14.02;47.33;96363.19;5106020;28;20959;-61
2022/10/28 02:51:28;;;;;;;2.63;1.80;;;;;;;14.07;46.68;96355.34;5102386;28;20441;-62
2022/10/28 02:54:05;;;;;;;0.10;0.10;;;;;;;14.06;46.99;96361.66;5098926;28;21264;-62
2022/10/28 02:56:38;;;;;;;0.97;0.73;;;;;;;14.07;46.84;96355.34;5103076;28;20513;-62
2022/10/28 02:59:10;;;;;;;0.10;0.10;;;;;;;14.09;46.78;96354.06;5108774;28;20994;-62
2022/10/28 03:01:38;;;;;;;0.57;0.57;;;;;;;14.17;46.83;96360.78;5102322;28;20438;-62
2022/10/28 03:04:05;;;;;;;0.27;0.27;;;;;;;14.12;46.95;96355.44;5097939;28;20996;-61
2022/10/28 03:06:32;;;;;;;2.40;2.10;;;;;;;14.21;47.23;96361.88;5103457;28;20536;-61
2022/10/28 03:08:59;;;;;;;0.10;0.10;;;;;;;14.28;47.08;96367.00;5096684;28;20449;-62
2022/10/28 03:11:26;;;;;;;0.17;0.17;;;;;;;14.48;46.36;96357.53;5112147;28;20487;-63
2022/10/28 03:13:53;;;;;;;0.37;0.37;;;;;;;14.56;45.86;96356.31;5100763;28;20523;-61
2022/10/28 03:16:19;;;;;;;0.10;0.10;;;;;;;14.48;45.84;96347.00;5096548;28;21023;-62
2022/10/28 03:18:46;;;;;;;0.30;0.30;;;;;;;14.56;45.55;96353.69;5097816;28;20489;-61
2022/10/28 03:21:13;;;;;;;0.10;0.10;;;;;;;14.49;45.66;96361.75;5102340;28;20456;-64
2022/10/28 03:23:40;;;;;;;0.10;0.10;;;;;;;14.52;45.82;96348.09;5095596;28;20598;-61
2022/10/28 03:26:07;;;;;;;0.20;0.20;;;;;;;14.37;46.18;96347.91;5097679;28;20452;-61
2022/10/28 03:28:33;;;;;;;0.37;0.20;;;;;;;14.38;46.49;96362.66;5100587;28;20452;-63
2022/10/28 03:31:00;;;;;;;0.27;0.27;;;;;;;14.40;46.08;96350.03;5094292;28;20802;-61
2022/10/28 03:33:27;;;;;;;0.40;0.40;;;;;;;14.50;45.42;96355.47;5103239;28;20447;-61
2022/10/28 03:35:54;;;;;;;0.10;0.10;;;;;;;14.59;46.03;96356.63;5100168;28;20850;-63
2022/10/28 03:38:21;;;;;;;0.10;0.10;;;;;;;14.38;46.62;96352.13;5103040;28;20806;-62
2022/10/28 03:40:48;;;;;;;0.60;0.60;;;;;;;14.40;46.18;96354.53;5109441;28;20443;-61
2022/10/28 03:43:16;;;;;;;0.10;0.10;;;;;;;14.47;45.57;96353.28;5091599;28;20539;-63
2022/10/28 03:45:43;;;;;;;2.33;1.03;;;;;;;14.41;46.01;96356.13;5099480;28;20476;-63
2022/10/28 03:48:10;;;;;;;0.10;0.10;;;;;;;14.48;45.78;96357.53;5091590;28;20537;-62
2022/10/28 03:50:37;;;;;;;2.33;1.33;;;;;;;14.40;45.92;96360.59;5101205;28;20552;-61
2022/10/28 03:53:03;;;;;;;0.70;0.70;;;;;;;14.34;46.05;96364.22;5101423;28;20492;-61
2022/10/28 03:55:30;;;;;;;0.30;0.30;;;;;;;14.33;45.84;96365.25;5110159;28;20983;-62
2022/10/28 03:58:00;;;;;;;0.40;0.40;;;;;;;14.45;45.99;96352.75;5098150;28;20433;-62
2022/10/28 04:00:28;;;;;;;0.20;0.20;;;;;;;14.38;45.78;96367.94;5093471;28;20972;-61
2022/10/28 04:02:55;;;;;;;0.80;0.80;;;;;;;14.30;45.99;96365.75;5101869;28;20437;-61
2022/10/28 04:05:22;;;;;;;0.17;0.17;;;;;;;14.29;45.66;96369.41;5090996;28;20453;-62
2022/10/28 04:07:49;;;;;;;0.40;0.40;;;;;;;14.21;46.25;96367.16;5093375;28;20445;-60
2022/10/28 04:10:16;;;;;;;0.10;0.10;;;;;;;14.33;45.73;96370.50;5111417;28;20517;-61
2022/10/28 04:12:43;;;;;;;0.20;0.20;;;;;;;14.27;45.76;96373.34;5108825;28;20535;-63
2022/10/28 04:15:09;;;;;;;0.13;0.13;;;;;;;14.19;46.09;96370.03;5104381;28;20445;-62
2022/10/28 04:17:36;;;;;;;0.30;0.30;;;;;;;14.08;45.74;96356.94;5090079;28;20510;-61
2022/10/28 04:20:04;;;;;;;0.43;0.43;;;;;;;14.11;45.65;96369.63;5109951;28;20479;-62
2022/10/28 04:22:30;;;;;;;1.60;1.50;;;;;;;14.11;45.62;96377.53;5110890;28;20464;-62
2022/10/28 04:25:16;;;;;;;0.80;0.80;;;;;;;14.05;45.93;96373.25;5109190;28;20484;-62
2022/10/28 04:27:44;;;;;;;0.50;0.50;;;;;;;13.85;46.47;96373.72;5110747;28;20444;-63
2022/10/28 04:30:11;;;;;;;0.40;0.40;;;;;;;13.94;46.49;96371.50;5110944;28;20455;-61
2022/10/28 04:32:40;;;;;;;1.23;0.90;;;;;;;13.78;46.83;96361.75;5110727;28;20550;-62
2022/10/28 04:35:08;;;;;;;0.80;0.80;;;;;;;12.79;51.14;96368.34;5096541;28;20436;-61
2022/10/28 04:37:35;;;;;;;1.70;1.60;;;;;;;12.53;51.97;96358.38;5105520;28;20441;-61
2022/10/28 04:40:03;;;;;;;0.90;0.90;;;;;;;13.38;49.51;96366.31;5089988;28;20533;-61
2022/10/28 04:42:30;;;;;;;2.27;2.07;;;;;;;13.49;49.16;96374.16;5088613;28;20964;-62
2022/10/28 04:44:56;;;;;;;1.53;1.40;;;;;;;13.18;49.65;96367.56;5090080;28;20580;-62
2022/10/28 04:47:23;;;;;;;1.27;1.20;;;;;;;13.99;47.68;96367.09;5104217;28;20475;-62
2022/10/28 04:49:50;;;;;;;0.37;0.37;;;;;;;14.24;46.64;96377.22;5110563;28;20432;-61
2022/10/28 04:52:17;;;;;;;0.50;0.50;;;;;;;13.86;47.14;96363.97;5095412;28;20551;-65
2022/10/28 04:54:44;;;;;;;8.40;6.30;;;;;;;13.94;47.96;96376.78;5110090;28;20483;-63
2022/10/28 04:57:11;;;;;;;15.57;8.87;;;;;;;13.68;47.79;96372.13;5109995;28;20527;-64
2022/10/28 04:59:37;;;;;;;1.97;1.80;;;;;;;13.47;47.87;96372.81;5110428;28;20472;-61
2022/10/28 05:02:04;;;;;;;2.80;1.67;;;;;;;13.42;48.08;96375.34;5095518;28;20937;-59
2022/10/28 05:04:31;;;;;;;1.27;1.17;;;;;;;13.54;47.78;96376.09;5110044;27;20440;-60
2022/10/28 05:06:58;;;;;;;0.70;0.70;;;;;;;13.43;47.73;96374.34;5096430;28;20448;-60
2022/10/28 05:09:25;;;;;;;0.77;0.67;;;;;;;13.54;48.13;96376.88;5108355;28;20444;-61
2022/10/28 05:11:53;;;;;;;1.07;0.60;;;;;;;13.65;47.85;96372.63;5109894;28;20527;-60
2022/10/28 05:14:19;;;;;;;0.47;0.47;;;;;;;13.89;46.60;96379.31;5094421;28;20444;-60
2022/10/28 05:16:46;;;;;;;0.20;0.20;;;;;;;13.99;46.22;96371.56;5108953;28;20494;-61
2022/10/28 05:19:13;;;;;;;1.40;1.30;;;;;;;13.77;46.50;96381.22;5094858;28;20481;-60
2022/10/28 05:21:40;;;;;;;4.03;1.07;;;;;;;13.14;48.04;96384.06;5100364;28;20455;-59
2022/10/28 05:24:07;;;;;;;0.40;0.40;;;;;;;13.58;46.74;96388.56;5103427;28;20443;-60
2022/10/28 05:26:34;;;;;;;0.30;0.30;;;;;;;13.54;46.90;96386.66;5103104;28;20437;-59
2022/10/28 05:29:00;;;;;;;1.03;1.00;;;;;;;12.95;48.37;96391.31;5089116;28;20445;-59
2022/10/28 05:31:27;;;;;;;0.73;0.73;;;;;;;13.40;47.34;96394.03;5088451;28;20473;-62
2022/10/28 05:33:54;;;;;;;0.43;0.43;;;;;;;13.38;47.13;96392.66;5100954;28;20444;-60
2022/10/28 05:36:21;;;;;;;1.27;1.17;;;;;;;13.49;47.05;96402.34;5109049;28;20543;-61
2022/10/28 05:38:48;;;;;;;0.90;0.90;;;;;;;13.29;47.46;96404.59;5097578;28;20459;-60
2022/10/28 05:41:15;;;;;;;1.17;0.80;;;;;;;13.63;47.04;96404.44;5087557;28;20441;-61
2022/10/28 05:43:42;;;;;;;3.33;2.10;;;;;;;13.56;47.16;96406.41;5088359;28;20448;-59
2022/10/28 05:46:08;;;;;;;1.00;1.00;;;;;;;13.22;47.72;96404.75;5092521;28;20566;-60
2022/10/28 05:48:35;;;;;;;4.10;2.70;;;;;;;13.63;46.55;96401.78;5098599;28;20433;-60
2022/10/28 05:51:02;;;;;;;4.80;2.93;;;;;;;13.65;47.83;96409.50;5088581;28;20439;-60
2022/10/28 05:53:29;;;;;;;0.83;0.83;;;;;;;13.36;49.28;96411.31;5102245;28;20446;-60
2022/10/28 05:55:57;;;;;;;3.90;1.20;;;;;;;13.59;47.81;96405.97;5108915;28;20816;-60
2022/10/28 05:58:24;;;;;;;4.10;2.93;;;;;;;13.56;47.91;96411.69;5096843;28;20444;-60
2022/10/28 06:00:51;;;;;;;4.50;2.70;;;;;;;13.94;47.26;96413.66;5106484;28;20563;-60
2022/10/28 06:03:17;;;;;;;4.27;3.83;;;;;;;13.90;47.03;96420.44;5109031;28;20482;-60
2022/10/28 06:05:44;;;;;;;1.23;1.17;;;;;;;13.66;47.59;96395.25;5093026;28;20502;-60
2022/10/28 06:08:12;;;;;;;6.73;3.50;;;;;;;14.22;46.68;96413.56;5102035;28;20467;-60
2022/10/28 06:10:40;;;;;;;0.97;0.97;;;;;;;14.39;46.34;96417.03;5101767;28;20916;-60
2022/10/28 06:13:08;;;;;;;0.93;0.87;;;;;;;14.14;46.98;96424.53;5109483;27;20448;-59
2022/10/28 06:15:34;;;;;;;7.33;3.53;;;;;;;14.45;46.53;96426.59;5109256;28;20466;-60
2022/10/28 06:18:01;;;;;;;3.50;1.93;;;;;;;14.27;47.60;96428.72;5095890;28;20524;-61
2022/10/28 06:20:28;;;;;;;4.40;3.63;;;;;;;14.51;46.30;96444.09;5107264;28;20476;-60
2022/10/28 06:22:56;;;;;;;2.50;1.60;;;;;;;14.27;46.95;96439.25;5116175;27;21029;-61
2022/10/28 06:25:25;;;;;;;2.40;2.20;;;;;;;13.80;48.31;96442.16;5116498;28;20435;-60
2022/10/28 06:27:56;;;;;;;1.60;1.23;;;;;;;13.16;50.42;96417.00;5099326;27;20524;-60
2022/10/28 06:30:24;;;;;;;2.07;1.97;;;;;;;14.15;47.98;96439.31;5095445;28;20975;-60
2022/10/28 06:32:51;;;;;;;1.60;1.27;;;;;;;13.58;49.23;96438.59;5097051;28;20849;-61
2022/10/28 06:35:18;;;;;;;1.93;1.53;;;;;;;13.83;48.99;96436.41;5116176;28;20448;-59
2022/10/28 06:37:45;;;;;;;2.50;2.30;;;;;;;13.81;48.53;96442.97;5101985;27;20528;-61
2022/10/28 06:40:11;;;;;;;2.90;1.77;;;;;;;13.44;50.42;96439.13;5100840;28;20846;-60
2022/10/28 06:42:38;;;;;;;2.43;1.60;;;;;;;14.18;48.63;96441.44;5101220;27;20436;-61
2022/10/28 06:45:05;;;;;;;0.60;0.60;;;;;;;14.29;47.72;96440.59;5105947;27;20540;-61
2022/10/28 06:47:33;;;;;;;9.37;3.60;;;;;;;14.28;48.44;96439.00;5096179;28;20579;-60
2022/10/28 06:50:07;;;;;;;1.70;0.83;;;;;;;14.60;46.94;96439.19;5115489;27;20526;-61
2022/10/28 06:52:34;;;;;;;0.87;0.80;;;;;;;14.73;46.67;96444.94;5101561;27;20550;-59
2022/10/28 06:55:01;;;;;;;0.70;0.70;;;;;;;14.29;48.15;96439.81;5115378;27;21024;-61
2022/10/28 06:57:27;;;;;;;5.87;3.10;;;;;;;15.01;47.46;96436.88;5096996;27;20523;-60
2022/10/28 06:59:55;;;;;;;0.77;0.77;;;;;;;15.02;47.23;96433.19;5105931;28;20475;-60
2022/10/28 07:02:21;;;;;;;1.17;1.17;;;;;;;15.16;46.62;96431.75;5101266;27;20487;-61
2022/10/28 07:04:48;;;;;;;2.00;1.43;;;;;;;14.67;47.96;96435.34;5106932;27;20444;-59
2022/10/28 07:07:15;;;;;;;3.47;2.17;;;;;;;15.40;46.70;96428.88;5110136;28;20478;-60
2022/10/28 07:09:43;;;;;;;1.10;0.93;;;;;;;15.79;45.40;96440.91;5115382;27;20446;-63
2022/10/28 07:12:11;;;;;;;4.77;3.57;;;;;;;15.16;48.66;96438.91;5102204;27;20451;-59
2022/10/28 07:14:37;;;;;;;1.07;1.07;;;;;;;15.54;46.88;96435.38;5114400;28;20468;-59
2022/10/28 07:17:04;;;;;;;1.57;1.47;;;;;;;15.38;46.46;96441.53;5103189;27;20466;-59
2022/10/28 07:19:31;;;;;;;0.93;0.83;;;;;;;15.73;45.80;96437.41;5095135;28;20559;-61
2022/10/28 07:21:58;;;;;;;1.03;0.97;;;;;;;15.99;45.40;96433.16;5112384;28;20462;-60
2022/10/28 07:24:25;;;;;;;3.20;1.67;;;;;;;15.67;45.20;96437.63;5109900;28;21151;-60
2022/10/28 07:26:57;;;;;;;1.53;1.00;;;;;;;15.30;47.24;96418.19;5091749;28;20441;-59
2022/10/28 07:29:23;;;;;;;1.23;1.17;;;;;;;15.99;45.88;96431.31;5106606;28;20443;-60
2022/10/28 07:31:53;;;;;;;0.40;0.40;;;;;;;15.42;46.62;96440.03;5111613;28;20854;-59
2022/10/28 07:34:20;;;;;;;5.97;2.27;;;;;;;16.22;45.15;96419.63;5111387;28;21255;-60
2022/10/28 07:36:54;;;;;;;6.23;2.13;;;;;;;16.68;44.05;96421.53;5105006;28;20789;-60
2022/10/28 07:39:21;;;;;;;0.83;0.67;;;;;;;15.53;45.98;96434.56;5090729;28;20528;-60
2022/10/28 07:41:48;;;;;;;1.80;1.70;;;;;;;15.82;45.45;96411.34;5099848;28;20472;-60
2022/10/28 07:44:15;;;;;;;5.97;1.03;;;;;;;16.57;44.48;96430.44;5105438;28;20532;-61
2022/10/28 07:46:42;;;;;;;3.83;1.93;;;;;;;15.55;46.06;96437.78;5100114;28;20475;-60
2022/10/28 07:49:09;;;;;;;1.10;0.70;;;;;;;15.60;45.83;96435.16;5101522;28;20448;-61
2022/10/28 07:51:35;;;;;;;1.03;1.03;;;;;;;15.79;45.40;96427.69;5090800;28;21003;-59
2022/10/28 07:54:02;;;;;;;0.67;0.67;;;;;;;16.73;43.50;96424.19;5108781;28;20520;-61
2022/10/28 07:56:29;;;;;;;6.23;3.47;;;;;;;17.03;42.90;96419.06;5111701;28;20954;-61
2022/10/28 07:58:56;;;;;;;1.27;1.17;;;;;;;16.62;43.29;96421.75;5096760;28;20564;-60
2022/10/28 08:01:23;;;;;;;0.57;0.57;;;;;;;16.92;43.10;96420.06;5111153;28;20562;-60
2022/10/28 08:03:50;;;;;;;1.40;1.30;;;;;;;17.76;41.69;96414.53;5110937;28;20432;-60
2022/10/28 08:06:19;;;;;;;1.17;1.07;;;;;;;17.44;41.71;96422.66;5105157;27;20437;-60
2022/10/28 08:08:51;;;;;;;0.50;0.50;;;;;;;17.85;41.77;96420.88;5104694;28;20491;-60
2022/10/28 08:11:21;;;;;;;0.30;0.30;;;;;;;18.31;40.51;96411.09;5104845;28;20445;-61
2022/10/28 08:13:48;;;;;;;1.73;0.90;;;;;;;18.11;40.77;96422.50;5090741;28;20880;-60
2022/10/28 08:16:16;;;;;;;0.73;0.73;;;;;;;19.01;39.11;96419.72;5090535;28;20441;-62
2022/10/28 08:18:44;;;;;;;3.43;2.13;;;;;;;18.48;39.54;96412.44;5101440;28;20642;-61
2022/10/28 08:21:12;;;;;;;1.03;0.93;;;;;;;18.72;39.96;96410.78;5093438;28;20465;-60
2022/10/28 08:23:40;;;;;;;5.80;1.10;;;;;;;19.17;38.93;96402.69;5100051;28;20536;-61
2022/10/28 08:26:07;;;;;;;1.67;1.27;;;;;;;19.43;38.26;96418.53;5110415;28;20443;-61
2022/10/28 08:28:33;;;;;;;1.17;1.13;;;;;;;18.19;40.63;96427.28;5110791;28;20482;-60
2022/10/28 08:31:02;;;;;;;0.93;0.60;;;;;;;19.14;38.52;96416.50;5096060;28;20449;-62
2022/10/28 08:33:36;;;;;;;1.43;1.23;;;;;;;18.28;39.78;96420.41;5103140;28;20433;-60
2022/10/28 08:36:04;;;;;;;1.23;1.13;;;;;;;18.33;39.54;96411.63;5104458;28;20432;-61
2022/10/28 08:38:31;;;;;;;0.47;0.47;;;;;;;18.39;40.05;96410.56;5090302;28;20815;-62
2022/10/28 08:41:32;;;;;;;2.83;1.40;;;;;;;18.47;39.82;96410.84;5089898;28;20468;-61
2022/10/28 08:44:22;;;;;;;0.20;0.20;;;;;;;18.97;39.28;96415.22;5104186;28;20483;-61
2022/10/28 08:47:04;;;;;;;0.90;0.90;;;;;;;19.65;37.63;96413.63;5110134;28;20464;-60
2022/10/28 08:49:35;;;;;;;0.67;0.67;;;;;;;19.80;37.60;96403.66;5109873;28;20489;-61
2022/10/28 08:52:23;;;;;;;1.07;0.97;;;;;;;19.96;37.37;96399.03;5095997;28;20467;-60
2022/10/28 08:55:12;;;;;;;0.20;0.20;;;;;;;19.94;37.66;96395.88;5099676;28;20457;-61
2022/10/28 08:57:48;;;;;;;0.50;0.50;;;;;;;20.62;35.90;96397.41;5094952;28;20466;-60
2022/10/28 09:00:28;;;;;;;0.70;0.70;;;;;;;19.80;36.74;96405.53;5109910;28;20486;-62
2022/10/28 09:03:13;;;;;;;0.63;0.63;;;;;;;19.94;37.30;96390.53;5110051;28;20462;-61
2022/10/28 09:05:43;;;;;;;0.50;0.50;;;;;;;20.23;37.39;96388.75;5095334;28;20455;-61
2022/10/28 09:08:32;;;;;;;0.30;0.30;;;;;;;20.82;35.47;96385.75;5110286;28;20595;-62
2022/10/28 09:11:16;;;;;;;0.13;0.13;;;;;;;21.25;35.01;96378.59;5106795;28;20445;-60
2022/10/28 09:14:01;;;;;;;0.30;0.30;;;;;;;20.81;35.89;96374.31;5089252;28;20441;-61
2022/10/28 09:16:37;;;;;;;0.83;0.83;;;;;;;20.34;36.51;96371.59;5095985;28;20531;-61
2022/10/28 09:19:15;;;;;;;0.33;0.33;;;;;;;20.36;37.29;96372.13;5109531;28;20455;-60
2022/10/28 09:22:11;;;;;;;0.40;0.40;;;;;;;21.30;34.81;96368.66;5096888;28;20225;-60
2022/10/28 09:24:50;;;;;;;0.90;0.87;;;;;;;21.17;35.23;96360.59;5109544;28;20439;-61
2022/10/28 09:27:32;;;;;;;0.50;0.50;;;;;;;21.64;35.21;96355.13;5098157;28;20444;-61
2022/10/28 09:30:26;;;;;;;0.80;0.80;;;;;;;22.73;33.67;96365.06;5103489;28;20437;-61
2022/10/28 09:33:27;;;;;;;0.67;0.67;;;;;;;22.44;33.30;96356.50;5103690;28;20443;-60
2022/10/28 09:35:55;;;;;;;1.23;1.00;;;;;;;22.37;33.06;96342.72;5088985;28;20441;-61
2022/10/28 09:38:31;;;;;;;5.17;1.13;;;;;;;22.71;32.84;96343.19;5093856;28;20217;-61
2022/10/28 09:41:09;;;;;;;1.60;1.50;;;;;;;22.24;33.78;96335.50;5105680;28;20643;-61
2022/10/28 09:43:45;;;;;;;0.50;0.50;;;;;;;21.37;34.99;96334.44;5100027;28;20582;-62
2022/10/28 09:46:14;;;;;;;1.03;0.77;;;;;;;22.45;34.01;96328.69;5109101;28;20240;-60
2022/10/28 09:48:50;;;;;;;0.77;0.77;;;;;;;21.99;34.14;96319.88;5098206;28;20290;-60
2022/10/28 09:51:30;;;;;;;0.53;0.53;;;;;;;22.27;34.15;96307.41;5089245;28;20195;-61
2022/10/28 09:53:58;;;;;;;1.10;0.83;;;;;;;22.11;34.07;96313.03;5103394;28;20565;-61
2022/10/28 09:56:26;;;;;;;1.23;0.47;;;;;;;21.75;34.70;96321.88;5098227;28;20198;-61
2022/10/28 09:58:56;;;;;;;0.67;0.47;;;;;;;22.53;32.75;96309.31;5094571;28;20195;-62
2022/10/28 10:01:23;;;;;;;1.73;1.07;;;;;;;22.19;33.65;96308.09;5100868;28;20298;-60
2022/10/28 10:03:51;;;;;;;0.33;0.33;;;;;;;22.23;34.01;96307.19;5103594;28;20316;-61
2022/10/28 10:06:31;;;;;;;0.50;0.50;;;;;;;22.27;33.90;96305.53;5108804;28;20194;-61
2022/10/28 10:08:59;;;;;;;0.80;0.80;;;;;;;23.06;32.99;96297.00;5107870;28;20259;-61
2022/10/28 10:11:28;;;;;;;0.50;0.40;;;;;;;22.40;34.26;96299.41;5088616;28;20191;-61
2022/10/28 10:13:58;;;;;;;0.53;0.53;;;;;;;22.96;33.03;96297.25;5088509;28;20283;-60
2022/10/28 10:16:46;;;;;;;0.50;0.50;;;;;;;22.55;34.26;96295.66;5088460;28;20226;-61
2022/10/28 10:19:13;;;;;;;0.40;0.40;;;;;;;22.56;33.62;96290.03;5103756;28;20201;-62
2022/10/28 10:21:43;;;;;;;0.40;0.40;;;;;;;22.90;33.24;96285.06;5109096;28;20222;-61
2022/10/28 10:24:23;;;;;;;0.10;0.10;;;;;;;22.96;33.47;96275.84;5094838;28;20670;-61
2022/10/28 10:26:51;;;;;;;0.40;0.40;;;;;;;23.21;31.26;96284.44;5088575;28;20186;-62
2022/10/28 10:29:19;;;;;;;0.30;0.30;;;;;;;22.63;31.69;96261.03;5102728;28;20281;-63
2022/10/28 10:31:46;;;;;;;0.47;0.47;;;;;;;22.92;31.74;96274.88;5108780;28;20197;-61
2022/10/28 10:34:23;;;;;;;1.07;0.90;;;;;;;23.93;31.05;96259.97;5095760;28;20283;-61
2022/10/28 10:36:54;;;;;;;0.20;0.20;;;;;;;23.77;31.27;96263.31;5094878;28;20196;-62
2022/10/28 10:39:41;;;;;;;0.30;0.30;;;;;;;23.70;31.97;96262.97;5095358;28;20203;-61
2022/10/28 10:42:16;;;;;;;0.30;0.30;;;;;;;23.49;31.81;96261.84;5088473;28;20227;-61
2022/10/28 10:45:00;;;;;;;0.10;0.10;;;;;;;23.17;29.80;96259.38;5095525;28;20186;-61
2022/10/28 10:47:27;;;;;;;0.33;0.23;;;;;;;23.72;30.72;96258.09;5107349;28;20606;-61
2022/10/28 10:50:18;;;;;;;0.27;0.27;;;;;;;23.84;30.97;96258.34;5088235;28;20964;-61
2022/10/28 10:52:55;;;;;;;1.60;1.23;;;;;;;24.03;30.26;96248.25;5095481;28;20280;-61
2022/10/28 10:55:35;;;;;;;0.30;0.30;;;;;;;23.35;31.11;96250.44;5112215;28;20282;-61
2022/10/28 10:58:04;;;;;;;1.00;0.77;;;;;;;23.11;31.17;96246.13;5103336;28;20198;-61
2022/10/28 11:00:36;;;;;;;0.20;0.20;;;;;;;23.31;30.88;96244.91;5105996;28;20242;-61
2022/10/28 11:03:24;;;;;;;0.50;0.50;;;;;;;23.91;30.93;96239.94;5092158;28;20200;-61
2022/10/28 11:05:55;;;;;;;0.77;0.60;;;;;;;23.20;31.01;96232.81;5106192;28;20199;-62
2022/10/28 11:08:45;;;;;;;0.40;0.40;;;;;;;23.24;31.35;96233.00;5104584;28;20252;-61
2022/10/28 11:11:30;;;;;;;0.50;0.50;;;;;;;22.81;32.35;96240.66;5097668;27;20680;-60
2022/10/28 11:14:24;;;;;;;1.07;0.70;;;;;;;23.95;30.33;96222.97;5098503;28;20241;-61
2022/10/28 11:17:01;;;;;;;4.43;0.83;;;;;;;23.72;30.52;96217.97;5088992;28;20255;-59
2022/10/28 11:19:34;;;;;;;0.23;0.23;;;;;;;23.79;30.55;96212.94;5091257;28;20224;-61
2022/10/28 11:22:10;;;;;;;0.30;0.30;;;;;;;24.06;29.34;96213.59;5101769;28;20230;-61
2022/10/28 11:24:59;;;;;;;0.60;0.60;;;;;;;24.31;27.56;96214.00;5092501;28;20602;-60
2022/10/28 11:27:50;;;;;;;0.67;0.67;;;;;;;24.45;27.12;96215.47;5104276;28;20251;-63
2022/10/28 11:30:42;;;;;;;0.43;0.43;;;;;;;24.41;27.87;96211.84;5100944;28;20728;-61
2022/10/28 11:33:17;;;;;;;2.57;0.60;;;;;;;24.55;27.60;96204.47;5097280;28;20190;-61
2022/10/28 11:36:00;;;;;;;0.37;0.37;;;;;;;24.54;27.72;96205.53;5098072;28;20202;-60
2022/10/28 11:38:58;;;;;;;0.70;0.70;;;;;;;24.66;28.00;96184.31;5091170;28;20282;-60
2022/10/28 11:41:34;;;;;;;3.60;1.53;;;;;;;25.56;27.06;96202.22;5099783;28;20236;-61
2022/10/28 11:44:10;;;;;;;0.30;0.30;;;;;;;25.87;27.14;96191.25;5105794;28;20855;-61
2022/10/28 11:46:48;;;;;;;0.20;0.20;;;;;;;26.09;27.05;96193.72;5111132;28;20234;-60
2022/10/28 11:49:18;;;;;;;0.10;0.10;;;;;;;26.49;24.53;96186.91;5111359;28;20205;-60
2022/10/28 11:51:57;;;;;;;0.27;0.27;;;;;;;26.59;24.86;96189.19;5098361;28;20190;-60
2022/10/28 11:54:43;;;;;;;0.40;0.40;;;;;;;26.69;25.19;96183.47;5098110;28;20196;-61
2022/10/28 11:57:13;;;;;;;0.10;0.10;;;;;;;26.68;23.54;96189.97;5096953;28;20205;-61
2022/10/28 12:00:07;;;;;;;0.10;0.10;;;;;;;27.08;23.97;96184.16;5103124;28;20619;-61